Latest Coastal Weather Observations for Low Head

IDT60701

Issued at 6:35 pm EST Thursday 2 October 2014 (issued every 10 minutes, with the page automatically refreshed every 10 minutes)

About coastal observations | Map of coastal stations | Coastal observations for TAS | Marine services | Other Formats
Station Details ID: 091293 Name: LOW HEAD Lat: -41.05 Lon: 146.79 Height: 3.0 m
Data from the previous 72 hours. | See also: Recent months at Low Head
Date/Time
EST
Temp

°C
Wind Pressure Rain
since 9am
mm
Weather Cloud Vis
km
Sea
Height
m
Swell
Dir
 
Speed
knots
Gust
knots
hPa Trend Height
m
Period
s
Dir
02/06:30pm 13.9 W 21 24 1016.6 - 0.0 - - - - - - -
02/06:00pm 14.5 W 21 25 1016.2 - 0.0 - - - - - - -
02/05:30pm 14.9 W 22 27 1016.0 - 0.0 - - - - - - -
02/05:00pm 14.8 W 19 23 1015.6 - 0.0 - - - - - - -
02/04:30pm 15.1 WNW 20 24 1015.4 - 0.0 - - - - - - -
02/04:00pm 15.7 W 19 22 1015.1 - 0.0 - - - - - - -
02/03:30pm 15.6 W 23 27 1014.7 - 0.0 - - - - - - -
02/03:00pm 15.6 W 24 29 1014.5 R 0.0 Fine Mostly clear 25 1 1.0 3 NW
02/02:30pm 15.7 W 23 26 1014.1 - 0.0 - - - - - - -
02/02:00pm 16.1 W 21 25 1014.3 - 0.0 - - - - - - -
02/01:30pm 16.0 W 20 24 1014.3 - 0.0 - - - - - - -
02/01:00pm 15.9 W 22 25 1014.2 - 0.0 - - - - - - -
02/12:30pm 15.4 W 24 27 1014.1 - 0.0 - - - - - - -
02/12:00pm 15.2 W 26 32 1014.2 - 0.0 - - - - - - -
02/11:30am 15.3 W 24 28 1014.2 - 0.0 - - - - - - -
02/11:00am 15.0 W 20 25 1014.5 - 0.0 - - - - - - -
02/10:30am 14.6 W 20 25 1014.5 - 0.0 - - - - - - -
02/10:00am 14.1 W 23 27 1014.2 - 0.0 - - - - - - -
02/09:30am 14.0 W 22 27 1014.3 - 0.0 - - - - - - -
02/09:00am 13.7 W 24 30 1014.0 F 0.0 Fine Mostly clear 25 1 1.0 3 NW
02/08:30am 13.2 W 22 26 1014.4 - 0.0 - - - - - - -
02/08:00am 12.9 W 22 27 1014.5 - 0.0 - - - - - - -
02/07:30am 12.6 WNW 22 27 1014.4 - 0.0 - - - - - - -
02/07:00am 12.4 WNW 24 28 1014.4 - 0.0 - - - - - - -
02/06:30am 12.2 W 24 29 1014.3 - 0.0 - - - - - - -
02/06:00am 12.0 W 25 31 1014.1 F 0.0 Fine Partly cloudy 25 1 1.0 3 NW
02/05:30am 12.1 W 26 30 1013.9 - 0.0 - - - - - - -
02/05:00am 12.1 W 26 29 1014.0 - 0.0 - - - - - - -
02/04:30am 12.3 W 26 32 1014.0 - 0.0 - - - - - - -
02/04:00am 12.1 W 26 30 1014.2 - 0.0 - - - - - - -
02/03:30am 12.1 W 25 30 1014.4 - 0.0 - - - - - - -
02/03:00am 12.1 W 25 29 1014.6 - 0.0 - - - - - - -
02/02:30am 12.1 W 24 29 1014.9 - 0.0 - - - - - - -
02/02:00am 12.1 W 24 29 1015.3 - 0.0 - - - - - - -
02/01:30am 12.1 W 25 30 1015.6 - 0.0 - - - - - - -
02/01:00am 12.2 W 25 32 1015.9 - 0.0 - - - - - - -
02/12:30am 12.2 W 24 28 1016.2 - 0.0 - - - - - - -
02/12:00am 12.1 W 24 28 1016.5 - 0.0 - - - - - - -
 
Date/Time
EST
Temp

°C
Wind Pressure Rain
since 9am
mm
Weather Cloud Vis
km
Sea
Height
m
Swell
Dir
 
Speed
knots
Gust
knots
hPa Trend Height
m
Period
s
Dir
01/11:30pm 12.0 W 24 29 1016.6 - 0.0 - - - - - - -
01/11:00pm 12.0 WNW 27 31 1016.9 - 0.0 - - - - - - -
01/10:30pm 11.9 WNW 25 29 1017.2 - 0.0 - - - - - - -
01/10:00pm 11.9 WNW 24 28 1017.6 - 0.0 - - - - - - -
01/09:30pm 11.7 WNW 25 30 1017.9 - 0.0 - - - - - - -
01/09:00pm 11.7 W 23 28 1018.3 - 0.0 - - - - - - -
01/08:30pm 11.8 W 22 25 1018.8 - 0.0 - - - - - - -
01/08:00pm 11.7 W 21 25 1018.8 - 0.0 - - - - - - -
01/07:30pm 11.8 W 21 25 1018.9 - 0.0 - - - - - - -
01/07:00pm 11.8 W 20 25 1018.6 - 0.0 - - - - - - -
01/06:30pm 11.6 W 21 25 1018.3 - 0.0 - - - - - - -
01/06:00pm 12.2 WSW 28 32 1017.5 - 0.0 - - - - - - -
01/05:30pm 12.3 W 23 27 1017.6 - 0.0 - - - - - - -
01/05:00pm 12.8 W 25 30 1017.1 - 0.0 - - - - - - -
01/04:30pm 12.8 W 25 29 1016.9 - 0.0 - - - - - - -
01/04:00pm 13.0 W 24 28 1017.0 - 0.0 - - - - - - -
01/03:30pm 13.3 W 21 27 1016.8 - 0.0 - - - - - - -
01/03:00pm 13.4 W 18 22 1016.7 R 0.0 Fine Mostly clear 25 1 1.0 3 NW
01/02:34pm 12.8 SW 17 27 1016.8 - 0.0 - - - - - - -
01/02:30pm 13.1 W 24 28 1016.8 - 0.0 - - - - - - -
01/02:00pm 13.0 W 21 25 1016.9 - 0.0 - - - - - - -
01/01:30pm 13.0 W 22 25 1016.8 - 0.0 - - - - - - -
01/01:00pm 12.6 WNW 19 23 1016.9 - 0.0 - - - - - - -
01/12:30pm 12.9 WNW 21 24 1017.0 - 0.0 - - - - - - -
01/12:00pm 13.0 W 20 25 1017.1 - 0.0 - - - - - - -
01/11:30am 12.8 W 20 23 1016.9 - 0.0 - - - - - - -
01/11:18am 12.6 W 20 23 1016.8 - 0.0 - - - - - - -
01/11:00am 12.5 WSW 19 26 1016.6 - 0.0 - - - - - - -
01/10:30am 12.5 WSW 15 20 1016.6 - 0.0 - - - - - - -
01/10:00am 12.2 W 10 12 1016.7 - 0.0 - - - - - - -
01/09:30am 11.6 W 11 14 1016.4 - 0.0 - - - - - - -
01/09:00am 10.4 WNW 10 13 1016.3 R 5.4 Fine Mostly clear 25 1 1.0 3 NW
01/08:30am 10.1 W 13 16 1016.0 - 5.4 - - - - - - -
01/08:00am 9.9 WSW 14 17 1015.5 - 5.4 - - - - - - -
01/07:30am 9.4 WSW 17 19 1014.8 - 5.4 - - - - - - -
01/07:00am 8.9 WSW 16 18 1014.4 - 5.4 - - - - - - -
01/06:30am 8.1 WSW 16 19 1013.5 - 5.4 - - - - - - -
01/06:00am 7.9 WSW 16 19 1012.9 R 5.4 Fine Mostly clear 25 1 1.0 3 NW
01/05:30am 7.9 WSW 17 19 1012.2 - 5.4 - - - - - - -
01/05:00am 8.2 WSW 18 22 1011.5 - 5.4 - - - - - - -
01/04:30am 8.3 SW 15 19 1010.7 - 5.4 - - - - - - -
01/04:00am 8.6 WSW 19 24 1010.2 - 5.4 - - - - - - -
01/03:57am 8.4 WSW 19 23 1010.1 - 5.4 - - - - - - -
01/03:30am 7.5 SSW 8 12 1010.0 - 5.4 - - - - - - -
01/03:00am 7.5 WSW 10 13 1009.3 - 5.4 - - - - - - -
01/02:30am 7.9 SW 9 15 1008.9 - 5.4 - - - - - - -
01/02:00am 7.7 S 8 20 1008.7 - 5.4 - - - - - - -
01/01:30am 8.4 WSW 17 22 1008.0 - 5.4 - - - - - - -
01/01:00am 8.7 WSW 21 25 1007.4 - 5.4 - - - - - - -
01/12:30am 9.3 WSW 22 27 1007.0 - 5.4 - - - - - - -
01/12:00am 9.7 W 23 27 1006.6 - 5.4 - - - - - - -
 
Date/Time
EST
Temp

°C
Wind Pressure Rain
since 9am
mm
Weather Cloud Vis
km
Sea
Height
m
Swell
Dir
 
Speed
knots
Gust
knots
hPa Trend Height
m
Period
s
Dir
30/11:30pm 10.1 W 22 26 1005.9 - 5.4 - - - - - - -
30/11:00pm 10.1 W 22 27 1005.1 - 5.4 - - - - - - -
30/10:30pm 10.1 W 25 31 1005.1 - 5.4 - - - - - - -
30/10:00pm 9.9 W 24 28 1004.6 - 5.4 - - - - - - -
30/09:30pm 9.8 W 22 25 1004.2 - 5.4 - - - - - - -
30/09:00pm 10.1 W 25 29 1003.5 - 5.4 - - - - - - -
30/08:30pm 10.0 W 24 29 1003.4 - 5.4 - - - - - - -
30/08:00pm 10.4 W 27 33 1002.6 - 5.4 - - - - - - -
30/07:30pm 10.5 W 27 31 1001.3 - 5.4 - - - - - - -
30/07:00pm 10.8 W 29 35 1000.3 - 5.4 - - - - - - -
30/06:30pm 11.0 W 28 34 998.6 - 5.4 - - - - - - -
30/06:00pm 11.3 W 20 25 998.9 - 5.4 - - - - - - -
30/05:40pm 11.2 WSW 19 31 997.8 - 5.4 - - - - - - -
30/05:34pm 11.0 W 31 41 997.9 - 5.4 - - - - - - -
30/05:30pm 11.2 W 34 41 998.3 - 5.4 - - - - - - -
30/05:00pm 11.3 W 30 37 997.4 - 5.2 - - - - - - -
30/04:30pm 11.8 WNW 24 28 997.3 - 4.8 - - - - - - -
30/04:00pm 11.6 WNW 26 31 996.6 - 4.4 - - - - - - -
30/03:30pm 12.1 NW 23 28 996.4 - 4.2 - - - - - - -
30/03:00pm 12.2 NW 28 35 997.0 F 3.2 Showers Cloudy 5 2 2.0 3 NW
30/02:30pm 12.1 WNW 26 35 996.5 - 2.6 - - - - - - -
30/02:11pm 12.0 W 24 34 996.9 - 2.2 - - - - - - -
30/02:10pm 12.4 WNW 25 34 996.9 - 2.2 - - - - - - -
30/02:00pm 13.7 NNW 27 37 996.6 - 1.4 - - - - - - -
30/01:38pm 13.4 NNW 23 38 996.9 - 1.0 - - - - - - -
30/01:30pm 13.5 NNW 26 32 997.2 - 0.6 - - - - - - -
30/01:00pm 14.4 NNW 25 31 997.9 - 0.0 - - - - - - -
30/12:30pm 14.4 NNW 25 31 998.7 - 0.0 - - - - - - -
30/12:00pm 14.5 NNW 26 31 999.2 - 0.0 - - - - - - -
30/11:30am 14.2 N 25 30 999.6 - 0.0 - - - - - - -
30/11:00am 14.5 N 23 27 1000.3 - 0.0 - - - - - - -
30/10:30am 14.6 N 23 27 1000.9 - 0.0 - - - - - - -
30/10:00am 14.3 N 22 26 1001.4 - 0.0 - - - - - - -
30/09:30am 13.7 NNW 22 26 1002.5 - 0.0 - - - - - - -
30/09:00am 13.7 N 21 24 1002.9 F 0.0 Fine Cloudy 10 1 1.0 3 -
30/08:30am 13.9 NNW 20 24 1003.5 - 0.0 - - - - - - -
30/08:00am 13.9 N 19 21 1003.8 - 0.0 - - - - - - -
30/07:30am 13.6 NNW 19 24 1004.2 - 0.0 - - - - - - -
30/07:00am 13.4 N 17 20 1004.6 - 0.0 - - - - - - -
30/06:30am 13.3 N 19 22 1005.0 - 0.0 - - - - - - -
30/06:00am 13.2 N 19 22 1004.8 F 0.0 Fine Cloudy 20 1 1.0 3 -
30/05:30am 13.2 N 17 20 1004.9 - 0.0 - - - - - - -
30/05:00am 13.1 N 15 18 1005.0 - 0.0 - - - - - - -
30/04:30am 13.1 N 16 19 1005.2 - 0.0 - - - - - - -
30/04:00am 13.1 N 17 20 1005.7 - 0.0 - - - - - - -
30/03:30am 13.2 N 17 20 1006.0 - 0.0 - - - - - - -
30/03:00am 13.2 NNW 17 20 1006.7 - 0.0 - - - - - - -
30/02:30am 13.3 NNW 17 20 1007.2 - 0.0 - - - - - - -
30/02:00am 13.4 NNW 17 19 1007.6 - 0.0 - - - - - - -
30/01:30am 13.4 NNW 18 22 1008.1 - 0.0 - - - - - - -
30/01:00am 13.4 NNW 18 21 1008.5 - 0.0 - - - - - - -
30/12:30am 13.4 NNW 17 21 1008.8 - 0.0 - - - - - - -
30/12:00am 13.3 NNW 16 19 1008.9 - 0.0 - - - - - - -
 
Date/Time
EST
Temp

°C
Wind Pressure Rain
since 9am
mm
Weather Cloud Vis
km
Sea
Height
m
Swell
Dir
 
Speed
knots
Gust
knots
hPa Trend Height
m
Period
s
Dir
29/11:30pm 13.3 NNW 16 19 1009.2 - 0.0 - - - - - - -
29/11:00pm 13.3 NNW 17 20 1009.1 - 0.0 - - - - - - -
29/10:30pm 13.3 NW 15 17 1009.1 - 0.0 - - - - - - -
29/10:00pm 13.3 NW 14 16 1009.2 - 0.0 - - - - - - -
29/09:30pm 13.1 WNW 14 17 1009.0 - 0.0 - - - - - - -
29/09:00pm 13.0 WNW 14 17 1008.8 - 0.0 - - - - - - -
29/08:30pm 13.2 NW 15 18 1009.1 - 0.0 - - - - - - -
29/08:00pm 13.2 NW 16 20 1009.1 - 0.0 - - - - - - -
29/07:30pm 13.2 NW 15 17 1009.2 - 0.0 - - - - - - -
29/07:00pm 13.2 WNW 16 20 1008.9 - 0.0 - - - - - - -

Other Formats:

Comma delimited format used in spreadsheet applications
http://www.bom.gov.au/fwo/IDT60701/IDT60701.95964.axf

JavaScript Object Notation format (JSON) in row-major order
http://www.bom.gov.au/fwo/IDT60701/IDT60701.95964.json